sensor_id;sensor_type;location;lat;lon;timestamp;pressure;altitude;pressure_sealevel;temperature;humidity
32456;BME280;18912;43.270;27.942;2023-02-04T00:00:18;97942.44;;;4.25;60.85
32456;BME280;18912;43.270;27.942;2023-02-04T00:02:44;97942.44;;;4.33;60.94
32456;BME280;18912;43.270;27.942;2023-02-04T00:05:11;97932.50;;;3.95;61.10
32456;BME280;18912;43.270;27.942;2023-02-04T00:07:37;97933.63;;;4.08;60.79
32456;BME280;18912;43.270;27.942;2023-02-04T00:10:04;97933.09;;;4.21;60.98
32456;BME280;18912;43.270;27.942;2023-02-04T00:12:30;97934.59;;;4.23;60.39
32456;BME280;18912;43.270;27.942;2023-02-04T00:14:55;97927.47;;;4.00;61.09
32456;BME280;18912;43.270;27.942;2023-02-04T00:17:21;97927.28;;;4.01;60.93
32456;BME280;18912;43.270;27.942;2023-02-04T00:19:46;97918.44;;;3.93;61.42
32456;BME280;18912;43.270;27.942;2023-02-04T00:22:12;97921.22;;;4.23;60.17
32456;BME280;18912;43.270;27.942;2023-02-04T00:24:37;97916.28;;;4.43;59.57
32456;BME280;18912;43.270;27.942;2023-02-04T00:27:04;97915.50;;;4.26;59.71
32456;BME280;18912;43.270;27.942;2023-02-04T00:29:30;97911.69;;;4.21;59.80
32456;BME280;18912;43.270;27.942;2023-02-04T00:31:55;97909.00;;;4.29;59.69
32456;BME280;18912;43.270;27.942;2023-02-04T00:34:21;97908.91;;;4.45;59.35
32456;BME280;18912;43.270;27.942;2023-02-04T00:36:47;97904.81;;;4.26;59.68
32456;BME280;18912;43.270;27.942;2023-02-04T00:39:12;97902.41;;;4.39;59.71
32456;BME280;18912;43.270;27.942;2023-02-04T00:41:38;97903.34;;;4.16;60.20
32456;BME280;18912;43.270;27.942;2023-02-04T00:44:03;97896.31;;;4.15;60.54
32456;BME280;18912;43.270;27.942;2023-02-04T00:46:29;97895.72;;;3.89;61.03
32456;BME280;18912;43.270;27.942;2023-02-04T00:48:54;97885.34;;;4.02;60.85
32456;BME280;18912;43.270;27.942;2023-02-04T00:51:20;97894.41;;;3.85;61.05
32456;BME280;18912;43.270;27.942;2023-02-04T00:53:45;97877.22;;;3.71;60.87
32456;BME280;18912;43.270;27.942;2023-02-04T00:56:11;97884.00;;;3.90;60.93
32456;BME280;18912;43.270;27.942;2023-02-04T00:58:36;97882.66;;;4.02;60.05
32456;BME280;18912;43.270;27.942;2023-02-04T01:01:02;97876.63;;;4.08;59.62
32456;BME280;18912;43.270;27.942;2023-02-04T01:03:28;97870.63;;;4.06;59.88
32456;BME280;18912;43.270;27.942;2023-02-04T01:05:53;97875.66;;;4.01;60.03
32456;BME280;18912;43.270;27.942;2023-02-04T01:08:19;97861.56;;;4.07;59.85
32456;BME280;18912;43.270;27.942;2023-02-04T01:10:45;97863.09;;;4.01;60.25
32456;BME280;18912;43.270;27.942;2023-02-04T01:13:10;97854.84;;;4.19;59.74
32456;BME280;18912;43.270;27.942;2023-02-04T01:15:36;97856.66;;;4.26;58.91
32456;BME280;18912;43.270;27.942;2023-02-04T01:18:01;97855.13;;;4.32;59.28
32456;BME280;18912;43.270;27.942;2023-02-04T01:20:27;97853.19;;;4.18;59.53
32456;BME280;18912;43.270;27.942;2023-02-04T01:22:53;97856.16;;;4.23;59.96
32456;BME280;18912;43.270;27.942;2023-02-04T01:25:18;97853.41;;;4.39;59.45
32456;BME280;18912;43.270;27.942;2023-02-04T01:27:44;97850.75;;;4.00;60.39
32456;BME280;18912;43.270;27.942;2023-02-04T01:30:12;97845.44;;;4.31;60.42
32456;BME280;18912;43.270;27.942;2023-02-04T01:32:38;97844.22;;;4.03;60.59
32456;BME280;18912;43.270;27.942;2023-02-04T01:35:04;97830.53;;;4.36;59.25
32456;BME280;18912;43.270;27.942;2023-02-04T01:37:30;97829.16;;;4.40;59.11
32456;BME280;18912;43.270;27.942;2023-02-04T01:39:55;97825.59;;;5.01;57.62
32456;BME280;18912;43.270;27.942;2023-02-04T01:42:22;97819.53;;;5.22;57.10
32456;BME280;18912;43.270;27.942;2023-02-04T01:44:48;97819.13;;;5.10;57.36
32456;BME280;18912;43.270;27.942;2023-02-04T01:47:14;97826.75;;;5.21;57.72
32456;BME280;18912;43.270;27.942;2023-02-04T01:49:39;97821.75;;;5.18;58.12
32456;BME280;18912;43.270;27.942;2023-02-04T01:52:05;97809.06;;;5.12;57.96
32456;BME280;18912;43.270;27.942;2023-02-04T01:54:31;97804.66;;;5.19;57.28
32456;BME280;18912;43.270;27.942;2023-02-04T01:56:56;97804.06;;;5.32;56.72
32456;BME280;18912;43.270;27.942;2023-02-04T01:59:22;97805.38;;;5.50;56.43
32456;BME280;18912;43.270;27.942;2023-02-04T02:01:50;97803.50;;;5.36;57.07
32456;BME280;18912;43.270;27.942;2023-02-04T02:04:18;97805.50;;;5.34;57.56
32456;BME280;18912;43.270;27.942;2023-02-04T02:06:48;97768.38;;;4.94;58.23
32456;BME280;18912;43.270;27.942;2023-02-04T02:09:16;97784.72;;;5.36;57.63
32456;BME280;18912;43.270;27.942;2023-02-04T02:11:41;97783.34;;;5.40;57.70
32456;BME280;18912;43.270;27.942;2023-02-04T02:14:07;97792.41;;;5.39;57.53
32456;BME280;18912;43.270;27.942;2023-02-04T02:16:32;97786.41;;;5.52;57.67
32456;BME280;18912;43.270;27.942;2023-02-04T02:18:58;97788.50;;;5.27;57.77
32456;BME280;18912;43.270;27.942;2023-02-04T02:21:37;97785.81;;;5.27;57.59
32456;BME280;18912;43.270;27.942;2023-02-04T02:24:24;97789.59;;;5.18;58.29
32456;BME280;18912;43.270;27.942;2023-02-04T02:26:51;97777.63;;;5.43;57.39
32456;BME280;18912;43.270;27.942;2023-02-04T02:29:17;97773.28;;;5.57;57.63
32456;BME280;18912;43.270;27.942;2023-02-04T02:31:43;97771.16;;;5.67;57.10
32456;BME280;18912;43.270;27.942;2023-02-04T02:34:08;97766.25;;;5.70;57.22
32456;BME280;18912;43.270;27.942;2023-02-04T02:36:34;97765.06;;;5.58;57.26
32456;BME280;18912;43.270;27.942;2023-02-04T02:38:59;97768.69;;;5.65;57.20
32456;BME280;18912;43.270;27.942;2023-02-04T02:41:25;97773.09;;;5.58;57.68
32456;BME280;18912;43.270;27.942;2023-02-04T02:43:50;97760.00;;;5.63;57.37
32456;BME280;18912;43.270;27.942;2023-02-04T02:46:16;97756.09;;;5.37;57.71
32456;BME280;18912;43.270;27.942;2023-02-04T02:48:41;97754.31;;;5.58;57.67
32456;BME280;18912;43.270;27.942;2023-02-04T02:51:07;97749.16;;;5.42;58.26
32456;BME280;18912;43.270;27.942;2023-02-04T02:53:33;97739.47;;;5.56;58.18
32456;BME280;18912;43.270;27.942;2023-02-04T02:55:58;97742.41;;;5.46;58.14
32456;BME280;18912;43.270;27.942;2023-02-04T02:58:31;97734.25;;;5.40;57.75
32456;BME280;18912;43.270;27.942;2023-02-04T03:00:58;97732.31;;;5.19;58.17
32456;BME280;18912;43.270;27.942;2023-02-04T03:03:26;97724.34;;;5.11;59.26
32456;BME280;18912;43.270;27.942;2023-02-04T03:05:56;97713.63;;;5.11;60.53
32456;BME280;18912;43.270;27.942;2023-02-04T03:08:24;97713.41;;;4.98;61.39
32456;BME280;18912;43.270;27.942;2023-02-04T03:10:50;97710.59;;;5.14;61.53
32456;BME280;18912;43.270;27.942;2023-02-04T03:13:16;97695.69;;;4.60;63.90
32456;BME280;18912;43.270;27.942;2023-02-04T03:15:42;97701.34;;;5.02;63.46
32456;BME280;18912;43.270;27.942;2023-02-04T03:18:09;97687.75;;;4.89;64.53
32456;BME280;18912;43.270;27.942;2023-02-04T03:20:35;97682.97;;;4.99;64.29
32456;BME280;18912;43.270;27.942;2023-02-04T03:23:02;97684.63;;;5.00;64.98
32456;BME280;18912;43.270;27.942;2023-02-04T03:25:27;97681.31;;;5.27;64.50
32456;BME280;18912;43.270;27.942;2023-02-04T03:27:54;97666.28;;;4.74;65.20
32456;BME280;18912;43.270;27.942;2023-02-04T03:30:21;97674.94;;;4.62;65.20
32456;BME280;18912;43.270;27.942;2023-02-04T03:32:47;97678.88;;;4.29;65.67
32456;BME280;18912;43.270;27.942;2023-02-04T03:35:12;97670.88;;;4.66;64.95
32456;BME280;18912;43.270;27.942;2023-02-04T03:37:38;97683.16;;;4.60;65.08
32456;BME280;18912;43.270;27.942;2023-02-04T03:40:04;97678.34;;;4.93;64.85
32456;BME280;18912;43.270;27.942;2023-02-04T03:42:30;97667.94;;;4.75;65.48
32456;BME280;18912;43.270;27.942;2023-02-04T03:44:55;97672.31;;;4.91;65.08
32456;BME280;18912;43.270;27.942;2023-02-04T03:47:21;97668.47;;;4.94;64.45
32456;BME280;18912;43.270;27.942;2023-02-04T03:49:46;97669.00;;;4.52;66.66
32456;BME280;18912;43.270;27.942;2023-02-04T03:52:12;97668.53;;;4.26;68.47
32456;BME280;18912;43.270;27.942;2023-02-04T03:54:37;97663.50;;;4.08;71.34
32456;BME280;18912;43.270;27.942;2023-02-04T03:57:02;97662.91;;;3.90;73.33
32456;BME280;18912;43.270;27.942;2023-02-04T03:59:28;97650.69;;;3.96;75.43
32456;BME280;18912;43.270;27.942;2023-02-04T04:01:53;97654.19;;;3.96;76.97
32456;BME280;18912;43.270;27.942;2023-02-04T04:04:19;97639.03;;;3.89;78.19
32456;BME280;18912;43.270;27.942;2023-02-04T04:06:44;97645.69;;;4.38;76.69
32456;BME280;18912;43.270;27.942;2023-02-04T04:09:10;97642.09;;;4.31;77.65
32456;BME280;18912;43.270;27.942;2023-02-04T04:11:35;97642.63;;;4.04;78.80
32456;BME280;18912;43.270;27.942;2023-02-04T04:14:01;97625.59;;;4.42;77.76
32456;BME280;18912;43.270;27.942;2023-02-04T04:16:26;97630.72;;;4.29;78.68
32456;BME280;18912;43.270;27.942;2023-02-04T04:18:52;97622.75;;;4.43;78.37
32456;BME280;18912;43.270;27.942;2023-02-04T04:21:18;97620.31;;;4.34;80.07
32456;BME280;18912;43.270;27.942;2023-02-04T04:23:43;97618.91;;;4.60;78.46
32456;BME280;18912;43.270;27.942;2023-02-04T04:26:09;97610.72;;;4.39;79.51
32456;BME280;18912;43.270;27.942;2023-02-04T04:28:34;97594.34;;;4.57;80.19
32456;BME280;18912;43.270;27.942;2023-02-04T04:31:00;97584.47;;;4.72;80.03
32456;BME280;18912;43.270;27.942;2023-02-04T04:33:25;97586.16;;;5.02;78.41
32456;BME280;18912;43.270;27.942;2023-02-04T04:35:50;97578.75;;;5.04;78.29
32456;BME280;18912;43.270;27.942;2023-02-04T04:38:16;97575.91;;;4.77;79.03
32456;BME280;18912;43.270;27.942;2023-02-04T04:40:41;97561.88;;;4.74;79.94
32456;BME280;18912;43.270;27.942;2023-02-04T04:43:07;97563.78;;;4.37;83.31
32456;BME280;18912;43.270;27.942;2023-02-04T04:45:32;97570.19;;;4.65;82.46
32456;BME280;18912;43.270;27.942;2023-02-04T04:47:58;97569.22;;;4.58;82.88
32456;BME280;18912;43.270;27.942;2023-02-04T04:50:23;97565.81;;;4.49;83.53
32456;BME280;18912;43.270;27.942;2023-02-04T04:52:48;97555.94;;;4.50;83.31
32456;BME280;18912;43.270;27.942;2023-02-04T04:55:14;97564.66;;;4.29;84.57
32456;BME280;18912;43.270;27.942;2023-02-04T04:57:39;97563.59;;;4.53;83.99
32456;BME280;18912;43.270;27.942;2023-02-04T05:00:06;97554.06;;;4.36;85.25
32456;BME280;18912;43.270;27.942;2023-02-04T05:02:32;97554.50;;;4.25;85.40
32456;BME280;18912;43.270;27.942;2023-02-04T05:04:57;97549.50;;;4.44;85.20
32456;BME280;18912;43.270;27.942;2023-02-04T05:07:23;97550.59;;;4.50;84.76
32456;BME280;18912;43.270;27.942;2023-02-04T05:09:48;97551.84;;;4.25;86.76
32456;BME280;18912;43.270;27.942;2023-02-04T05:12:14;97549.44;;;4.30;86.99
32456;BME280;18912;43.270;27.942;2023-02-04T05:14:40;97543.94;;;4.46;86.30
32456;BME280;18912;43.270;27.942;2023-02-04T05:17:05;97547.72;;;4.51;85.08
32456;BME280;18912;43.270;27.942;2023-02-04T05:19:31;97541.59;;;4.14;87.52
32456;BME280;18912;43.270;27.942;2023-02-04T05:21:56;97545.06;;;4.37;87.16
32456;BME280;18912;43.270;27.942;2023-02-04T05:24:22;97545.03;;;4.00;88.68
32456;BME280;18912;43.270;27.942;2023-02-04T05:26:47;97544.19;;;3.99;89.51
32456;BME280;18912;43.270;27.942;2023-02-04T05:29:13;97548.50;;;4.23;89.00
32456;BME280;18912;43.270;27.942;2023-02-04T05:31:38;97537.94;;;4.07;89.88
32456;BME280;18912;43.270;27.942;2023-02-04T05:34:04;97538.34;;;4.18;89.03
32456;BME280;18912;43.270;27.942;2023-02-04T05:36:29;97531.81;;;4.21;89.33
32456;BME280;18912;43.270;27.942;2023-02-04T05:38:55;97526.34;;;4.14;89.20
32456;BME280;18912;43.270;27.942;2023-02-04T05:41:20;97527.59;;;4.41;88.50
32456;BME280;18912;43.270;27.942;2023-02-04T05:43:46;97524.97;;;4.18;89.59
32456;BME280;18912;43.270;27.942;2023-02-04T05:46:11;97527.97;;;4.38;89.46
32456;BME280;18912;43.270;27.942;2023-02-04T05:48:37;97522.34;;;4.47;88.04
32456;BME280;18912;43.270;27.942;2023-02-04T05:51:04;97522.81;;;3.99;91.50
32456;BME280;18912;43.270;27.942;2023-02-04T05:53:30;97519.47;;;3.97;92.61
32456;BME280;18912;43.270;27.942;2023-02-04T05:55:55;97522.47;;;4.02;92.69
32456;BME280;18912;43.270;27.942;2023-02-04T05:58:21;97520.34;;;4.12;93.14
32456;BME280;18912;43.270;27.942;2023-02-04T06:00:46;97521.44;;;4.03;93.43
32456;BME280;18912;43.270;27.942;2023-02-04T06:03:12;97522.13;;;4.20;92.84
32456;BME280;18912;43.270;27.942;2023-02-04T06:05:39;97524.91;;;4.26;92.93
32456;BME280;18912;43.270;27.942;2023-02-04T06:08:04;97521.50;;;4.18;92.80
32456;BME280;18912;43.270;27.942;2023-02-04T06:10:30;97531.88;;;4.50;91.11
32456;BME280;18912;43.270;27.942;2023-02-04T06:12:55;97518.41;;;4.06;93.13
32456;BME280;18912;43.270;27.942;2023-02-04T06:15:21;97527.13;;;4.23;93.44
32456;BME280;18912;43.270;27.942;2023-02-04T06:17:46;97521.69;;;4.45;91.54
32456;BME280;18912;43.270;27.942;2023-02-04T06:20:13;97517.66;;;4.79;90.14
32456;BME280;18912;43.270;27.942;2023-02-04T06:22:39;97526.03;;;4.46;90.02
32456;BME280;18912;43.270;27.942;2023-02-04T06:25:04;97532.69;;;4.65;90.41
32456;BME280;18912;43.270;27.942;2023-02-04T06:27:30;97517.66;;;4.79;89.98
32456;BME280;18912;43.270;27.942;2023-02-04T06:29:55;97502.97;;;4.45;92.04
32456;BME280;18912;43.270;27.942;2023-02-04T06:32:21;97514.88;;;4.57;91.09
32456;BME280;18912;43.270;27.942;2023-02-04T06:34:47;97522.59;;;4.23;93.29
32456;BME280;18912;43.270;27.942;2023-02-04T06:37:13;97516.88;;;4.26;93.83
32456;BME280;18912;43.270;27.942;2023-02-04T06:39:40;97515.56;;;4.08;94.12
32456;BME280;18912;43.270;27.942;2023-02-04T06:42:05;97518.97;;;4.16;94.33
32456;BME280;18912;43.270;27.942;2023-02-04T06:44:31;97506.88;;;4.06;95.21
32456;BME280;18912;43.270;27.942;2023-02-04T06:46:56;97515.19;;;4.11;95.01
32456;BME280;18912;43.270;27.942;2023-02-04T06:49:22;97514.47;;;4.17;95.48
32456;BME280;18912;43.270;27.942;2023-02-04T06:51:49;97516.03;;;4.26;95.00
32456;BME280;18912;43.270;27.942;2023-02-04T06:54:15;97512.75;;;4.38;93.74
32456;BME280;18912;43.270;27.942;2023-02-04T06:56:41;97501.78;;;4.48;92.79
32456;BME280;18912;43.270;27.942;2023-02-04T06:59:08;97510.34;;;4.29;94.17
32456;BME280;18912;43.270;27.942;2023-02-04T07:01:34;97504.16;;;4.43;93.46
32456;BME280;18912;43.270;27.942;2023-02-04T07:04:00;97510.25;;;4.37;93.56
32456;BME280;18912;43.270;27.942;2023-02-04T07:06:26;97496.84;;;4.22;94.77
32456;BME280;18912;43.270;27.942;2023-02-04T07:08:51;97502.13;;;4.45;93.91
32456;BME280;18912;43.270;27.942;2023-02-04T07:11:17;97496.31;;;4.56;93.38
32456;BME280;18912;43.270;27.942;2023-02-04T07:13:42;97492.25;;;4.45;93.56
32456;BME280;18912;43.270;27.942;2023-02-04T07:16:08;97492.44;;;4.44;94.04
32456;BME280;18912;43.270;27.942;2023-02-04T07:18:33;97493.91;;;4.46;93.29
32456;BME280;18912;43.270;27.942;2023-02-04T07:20:59;97496.41;;;4.77;92.36
32456;BME280;18912;43.270;27.942;2023-02-04T07:23:24;97494.03;;;4.82;91.72
32456;BME280;18912;43.270;27.942;2023-02-04T07:25:52;97494.53;;;4.92;91.30
32456;BME280;18912;43.270;27.942;2023-02-04T07:28:18;97486.06;;;4.89;90.58
32456;BME280;18912;43.270;27.942;2023-02-04T07:30:44;97493.88;;;5.05;91.25
32456;BME280;18912;43.270;27.942;2023-02-04T07:33:10;97485.09;;;5.11;90.14
32456;BME280;18912;43.270;27.942;2023-02-04T07:35:35;97482.28;;;5.33;88.93
32456;BME280;18912;43.270;27.942;2023-02-04T07:38:04;97480.69;;;5.39;89.24
32456;BME280;18912;43.270;27.942;2023-02-04T07:40:29;97481.69;;;5.38;88.28
32456;BME280;18912;43.270;27.942;2023-02-04T07:42:55;97481.59;;;5.10;88.91
32456;BME280;18912;43.270;27.942;2023-02-04T07:45:20;97474.44;;;5.17;89.72
32456;BME280;18912;43.270;27.942;2023-02-04T07:47:46;97478.56;;;4.99;90.26
32456;BME280;18912;43.270;27.942;2023-02-04T07:50:11;97469.97;;;5.24;90.25
32456;BME280;18912;43.270;27.942;2023-02-04T07:52:37;97475.75;;;5.42;88.97
32456;BME280;18912;43.270;27.942;2023-02-04T07:55:03;97474.09;;;5.62;88.48
32456;BME280;18912;43.270;27.942;2023-02-04T07:57:29;97479.97;;;5.51;88.81
32456;BME280;18912;43.270;27.942;2023-02-04T07:59:55;97473.28;;;5.41;88.67
32456;BME280;18912;43.270;27.942;2023-02-04T08:02:20;97467.00;;;5.55;88.79
32456;BME280;18912;43.270;27.942;2023-02-04T08:04:46;97473.69;;;5.23;89.50
32456;BME280;18912;43.270;27.942;2023-02-04T08:07:11;97465.81;;;5.36;89.97
32456;BME280;18912;43.270;27.942;2023-02-04T08:09:37;97476.16;;;5.39;89.12
32456;BME280;18912;43.270;27.942;2023-02-04T08:12:02;97470.78;;;5.18;90.16
32456;BME280;18912;43.270;27.942;2023-02-04T08:14:28;97468.38;;;5.44;89.89
32456;BME280;18912;43.270;27.942;2023-02-04T08:16:53;97463.00;;;5.65;88.03
32456;BME280;18912;43.270;27.942;2023-02-04T08:19:19;97472.00;;;5.79;88.08
32456;BME280;18912;43.270;27.942;2023-02-04T08:21:46;97464.16;;;5.35;88.92
32456;BME280;18912;43.270;27.942;2023-02-04T08:24:12;97463.25;;;5.49;90.36
32456;BME280;18912;43.270;27.942;2023-02-04T08:26:39;97468.50;;;5.57;89.60
32456;BME280;18912;43.270;27.942;2023-02-04T08:29:04;97452.97;;;5.53;90.69
32456;BME280;18912;43.270;27.942;2023-02-04T08:31:30;97458.59;;;5.37;91.21
32456;BME280;18912;43.270;27.942;2023-02-04T08:33:55;97451.84;;;5.41;91.65
32456;BME280;18912;43.270;27.942;2023-02-04T08:36:20;97452.47;;;5.64;90.58
32456;BME280;18912;43.270;27.942;2023-02-04T08:38:46;97449.13;;;6.04;89.85
32456;BME280;18912;43.270;27.942;2023-02-04T08:41:11;97455.63;;;5.89;88.87
32456;BME280;18912;43.270;27.942;2023-02-04T08:43:37;97456.44;;;6.44;88.16
32456;BME280;18912;43.270;27.942;2023-02-04T08:46:02;97450.69;;;6.54;87.11
32456;BME280;18912;43.270;27.942;2023-02-04T08:48:28;97458.72;;;6.88;86.50
32456;BME280;18912;43.270;27.942;2023-02-04T08:50:53;97449.66;;;6.96;85.31
32456;BME280;18912;43.270;27.942;2023-02-04T08:53:19;97461.19;;;6.83;86.10
32456;BME280;18912;43.270;27.942;2023-02-04T08:55:44;97451.75;;;7.00;85.36
32456;BME280;18912;43.270;27.942;2023-02-04T08:58:10;97457.88;;;6.81;84.96
32456;BME280;18912;43.270;27.942;2023-02-04T09:00:35;97463.28;;;6.53;86.22
32456;BME280;18912;43.270;27.942;2023-02-04T09:03:01;97453.50;;;6.39;87.11
32456;BME280;18912;43.270;27.942;2023-02-04T09:05:26;97456.47;;;6.17;87.67
32456;BME280;18912;43.270;27.942;2023-02-04T09:07:52;97454.22;;;6.27;88.48
32456;BME280;18912;43.270;27.942;2023-02-04T09:10:17;97454.97;;;6.83;85.79
32456;BME280;18912;43.270;27.942;2023-02-04T09:12:43;97447.63;;;6.57;87.26
32456;BME280;18912;43.270;27.942;2023-02-04T09:15:09;97448.97;;;6.81;85.84
32456;BME280;18912;43.270;27.942;2023-02-04T09:17:35;97443.91;;;6.51;87.60
32456;BME280;18912;43.270;27.942;2023-02-04T09:20:03;97443.97;;;6.71;87.12
32456;BME280;18912;43.270;27.942;2023-02-04T09:22:30;97439.06;;;6.81;87.52
32456;BME280;18912;43.270;27.942;2023-02-04T09:24:55;97439.03;;;6.75;86.18
32456;BME280;18912;43.270;27.942;2023-02-04T09:27:21;97426.03;;;6.78;86.90
32456;BME280;18912;43.270;27.942;2023-02-04T09:29:46;97422.78;;;6.89;86.34
32456;BME280;18912;43.270;27.942;2023-02-04T09:32:12;97427.13;;;6.90;85.67
32456;BME280;18912;43.270;27.942;2023-02-04T09:34:37;97418.16;;;6.70;86.50
32456;BME280;18912;43.270;27.942;2023-02-04T09:37:03;97416.91;;;6.66;87.98
32456;BME280;18912;43.270;27.942;2023-02-04T09:39:28;97416.41;;;6.49;88.31
32456;BME280;18912;43.270;27.942;2023-02-04T09:41:54;97408.75;;;6.94;87.34
32456;BME280;18912;43.270;27.942;2023-02-04T09:44:21;97415.13;;;6.86;88.02
32456;BME280;18912;43.270;27.942;2023-02-04T09:46:55;97413.00;;;7.29;87.03
32456;BME280;18912;43.270;27.942;2023-02-04T09:49:21;97407.88;;;7.93;86.22
32456;BME280;18912;43.270;27.942;2023-02-04T09:51:47;97381.78;;;8.13;81.92
32456;BME280;18912;43.270;27.942;2023-02-04T09:54:16;97399.34;;;8.48;81.55
32456;BME280;18912;43.270;27.942;2023-02-04T09:56:42;97403.72;;;9.69;78.26
32456;BME280;18912;43.270;27.942;2023-02-04T09:59:16;97397.72;;;10.59;74.58
32456;BME280;18912;43.270;27.942;2023-02-04T10:01:43;97392.66;;;11.46;69.83
32456;BME280;18912;43.270;27.942;2023-02-04T10:04:13;97400.75;;;12.17;66.08
32456;BME280;18912;43.270;27.942;2023-02-04T10:06:41;97397.16;;;11.82;65.40
32456;BME280;18912;43.270;27.942;2023-02-04T10:09:11;97393.06;;;11.61;63.87
32456;BME280;18912;43.270;27.942;2023-02-04T10:11:39;97389.00;;;11.41;64.78
32456;BME280;18912;43.270;27.942;2023-02-04T10:14:12;97384.34;;;11.59;64.98
32456;BME280;18912;43.270;27.942;2023-02-04T10:16:39;97384.84;;;10.79;66.48
32456;BME280;18912;43.270;27.942;2023-02-04T10:19:13;97374.78;;;11.75;64.68
32456;BME280;18912;43.270;27.942;2023-02-04T10:21:40;97385.13;;;11.78;64.39
32456;BME280;18912;43.270;27.942;2023-02-04T10:24:12;97375.53;;;12.51;64.22
32456;BME280;18912;43.270;27.942;2023-02-04T10:26:38;97379.66;;;11.96;62.59
32456;BME280;18912;43.270;27.942;2023-02-04T10:29:06;97377.28;;;11.47;62.07
32456;BME280;18912;43.270;27.942;2023-02-04T10:31:38;97364.56;;;11.47;63.48
32456;BME280;18912;43.270;27.942;2023-02-04T10:34:17;97363.03;;;11.40;64.64
32456;BME280;18912;43.270;27.942;2023-02-04T10:36:54;97363.50;;;11.48;62.29
32456;BME280;18912;43.270;27.942;2023-02-04T10:39:41;97375.94;;;11.67;63.89
32456;BME280;18912;43.270;27.942;2023-02-04T10:42:23;97363.13;;;11.74;63.34
32456;BME280;18912;43.270;27.942;2023-02-04T10:44:48;97358.88;;;11.67;63.23
32456;BME280;18912;43.270;27.942;2023-02-04T10:47:17;97361.97;;;11.82;63.12
32456;BME280;18912;43.270;27.942;2023-02-04T10:52:20;97359.81;;;10.83;64.82
32456;BME280;18912;43.270;27.942;2023-02-04T10:54:46;97360.56;;;10.36;66.94
32456;BME280;18912;43.270;27.942;2023-02-04T10:57:28;97355.06;;;10.24;68.48
32456;BME280;18912;43.270;27.942;2023-02-04T10:59:59;97357.19;;;9.73;69.92
32456;BME280;18912;43.270;27.942;2023-02-04T11:05:14;97356.03;;;9.63;70.94
32456;BME280;18912;43.270;27.942;2023-02-04T11:07:40;97346.97;;;9.51;71.67
32456;BME280;18912;43.270;27.942;2023-02-04T11:10:11;97347.66;;;9.15;72.88
32456;BME280;18912;43.270;27.942;2023-02-04T11:12:46;97341.66;;;8.69;74.87
32456;BME280;18912;43.270;27.942;2023-02-04T11:18:29;97335.88;;;8.65;75.03
32456;BME280;18912;43.270;27.942;2023-02-04T11:20:57;97341.41;;;8.26;76.81
32456;BME280;18912;43.270;27.942;2023-02-04T11:26:10;97344.34;;;7.92;77.63
32456;BME280;18912;43.270;27.942;2023-02-04T11:28:47;97331.50;;;7.94;77.53
32456;BME280;18912;43.270;27.942;2023-02-04T11:31:26;97346.41;;;7.90;79.00
32456;BME280;18912;43.270;27.942;2023-02-04T11:39:22;97337.25;;;8.04;79.59
32456;BME280;18912;43.270;27.942;2023-02-04T11:41:48;97325.03;;;8.08;78.64
32456;BME280;18912;43.270;27.942;2023-02-04T11:44:15;97334.75;;;8.22;78.08
32456;BME280;18912;43.270;27.942;2023-02-04T11:46:41;97327.13;;;8.06;78.95
32456;BME280;18912;43.270;27.942;2023-02-04T11:49:17;97324.88;;;7.64;80.12
32456;BME280;18912;43.270;27.942;2023-02-04T11:51:43;97328.81;;;7.68;80.61
32456;BME280;18912;43.270;27.942;2023-02-04T11:54:12;97327.94;;;8.13;79.75
32456;BME280;18912;43.270;27.942;2023-02-04T11:56:40;97330.63;;;8.26;78.96
32456;BME280;18912;43.270;27.942;2023-02-04T11:59:08;97328.97;;;8.31;78.90
32456;BME280;18912;43.270;27.942;2023-02-04T12:01:35;97324.03;;;7.89;79.17
32456;BME280;18912;43.270;27.942;2023-02-04T12:04:03;97323.34;;;8.33;78.65
32456;BME280;18912;43.270;27.942;2023-02-04T12:06:31;97330.09;;;8.55;77.76
32456;BME280;18912;43.270;27.942;2023-02-04T12:11:55;97324.84;;;8.73;75.17
32456;BME280;18912;43.270;27.942;2023-02-04T12:14:21;97327.16;;;8.70;74.96
32456;BME280;18912;43.270;27.942;2023-02-04T12:16:48;97330.22;;;8.16;76.91
32456;BME280;18912;43.270;27.942;2023-02-04T12:19:16;97332.41;;;8.52;75.73
32456;BME280;18912;43.270;27.942;2023-02-04T12:21:42;97326.78;;;8.53;75.93
32456;BME280;18912;43.270;27.942;2023-02-04T12:24:08;97325.72;;;8.67;74.97
32456;BME280;18912;43.270;27.942;2023-02-04T12:26:33;97327.00;;;8.58;75.18
32456;BME280;18912;43.270;27.942;2023-02-04T12:28:59;97325.78;;;8.92;74.92
32456;BME280;18912;43.270;27.942;2023-02-04T12:31:27;97332.16;;;9.04;74.20
32456;BME280;18912;43.270;27.942;2023-02-04T12:33:53;97326.53;;;9.05;73.27
32456;BME280;18912;43.270;27.942;2023-02-04T12:36:19;97335.66;;;9.04;72.06
32456;BME280;18912;43.270;27.942;2023-02-04T12:38:44;97323.56;;;8.82;71.76
32456;BME280;18912;43.270;27.942;2023-02-04T12:41:10;97341.50;;;9.01;71.64
32456;BME280;18912;43.270;27.942;2023-02-04T12:43:35;97334.19;;;9.08;70.80
32456;BME280;18912;43.270;27.942;2023-02-04T12:46:01;97342.97;;;8.97;70.93
32456;BME280;18912;43.270;27.942;2023-02-04T12:48:26;97348.81;;;9.25;69.94
32456;BME280;18912;43.270;27.942;2023-02-04T12:50:52;97339.38;;;9.41;69.64
32456;BME280;18912;43.270;27.942;2023-02-04T12:53:18;97349.06;;;9.49;69.40
32456;BME280;18912;43.270;27.942;2023-02-04T12:55:43;97347.09;;;9.37;69.17
32456;BME280;18912;43.270;27.942;2023-02-04T12:58:09;97357.75;;;9.19;70.19
32456;BME280;18912;43.270;27.942;2023-02-04T13:00:34;97354.13;;;9.07;70.20
32456;BME280;18912;43.270;27.942;2023-02-04T13:03:00;97359.59;;;9.25;69.75
32456;BME280;18912;43.270;27.942;2023-02-04T13:05:26;97361.06;;;9.21;69.87
32456;BME280;18912;43.270;27.942;2023-02-04T13:07:51;97358.31;;;9.34;69.56
32456;BME280;18912;43.270;27.942;2023-02-04T13:10:17;97362.13;;;9.20;70.66
32456;BME280;18912;43.270;27.942;2023-02-04T13:12:43;97362.19;;;8.63;73.40
32456;BME280;18912;43.270;27.942;2023-02-04T13:15:09;97372.13;;;8.69;72.70